sensor_id;sensor_type;location;lat;lon;timestamp;P1;durP1;ratioP1;P2;durP2;ratioP2
81821;SDS011;72257;52.384;4.882;2023-11-18T00:01:44;23.53;;;10.87;;
81821;SDS011;72257;52.384;4.882;2023-11-18T00:04:09;22.73;;;11.67;;
81821;SDS011;72257;52.384;4.882;2023-11-18T00:06:40;23.60;;;11.95;;
81821;SDS011;72257;52.384;4.882;2023-11-18T00:09:05;22.83;;;11.77;;
81821;SDS011;72257;52.384;4.882;2023-11-18T00:11:31;20.83;;;11.68;;
81821;SDS011;72257;52.384;4.882;2023-11-18T00:13:56;22.57;;;11.90;;
81821;SDS011;72257;52.384;4.882;2023-11-18T00:16:21;29.15;;;12.95;;
81821;SDS011;72257;52.384;4.882;2023-11-18T00:18:47;21.10;;;11.75;;
81821;SDS011;72257;52.384;4.882;2023-11-18T00:21:13;24.25;;;10.52;;
81821;SDS011;72257;52.384;4.882;2023-11-18T00:23:38;22.43;;;12.33;;
81821;SDS011;72257;52.384;4.882;2023-11-18T00:26:04;24.05;;;11.65;;
81821;SDS011;72257;52.384;4.882;2023-11-18T00:28:31;23.35;;;11.63;;
81821;SDS011;72257;52.384;4.882;2023-11-18T00:30:57;24.10;;;12.17;;
81821;SDS011;72257;52.384;4.882;2023-11-18T00:33:22;23.00;;;10.13;;
81821;SDS011;72257;52.384;4.882;2023-11-18T00:35:47;20.23;;;10.73;;
81821;SDS011;72257;52.384;4.882;2023-11-18T00:38:12;19.93;;;10.07;;
81821;SDS011;72257;52.384;4.882;2023-11-18T00:40:37;22.30;;;11.20;;
81821;SDS011;72257;52.384;4.882;2023-11-18T00:43:03;21.80;;;11.17;;
81821;SDS011;72257;52.384;4.882;2023-11-18T00:45:28;22.20;;;11.15;;
81821;SDS011;72257;52.384;4.882;2023-11-18T00:47:53;18.83;;;8.97;;
81821;SDS011;72257;52.384;4.882;2023-11-18T00:50:19;20.05;;;10.65;;
81821;SDS011;72257;52.384;4.882;2023-11-18T00:52:44;19.77;;;10.50;;
81821;SDS011;72257;52.384;4.882;2023-11-18T00:57:38;19.02;;;10.02;;
81821;SDS011;72257;52.384;4.882;2023-11-18T01:00:07;21.73;;;10.35;;
81821;SDS011;72257;52.384;4.882;2023-11-18T01:02:32;19.23;;;10.48;;
81821;SDS011;72257;52.384;4.882;2023-11-18T01:04:57;18.83;;;11.03;;
81821;SDS011;72257;52.384;4.882;2023-11-18T01:07:22;19.67;;;10.57;;
81821;SDS011;72257;52.384;4.882;2023-11-18T01:09:47;21.37;;;10.63;;
81821;SDS011;72257;52.384;4.882;2023-11-18T01:12:14;20.02;;;11.05;;
81821;SDS011;72257;52.384;4.882;2023-11-18T01:14:39;22.73;;;10.73;;
81821;SDS011;72257;52.384;4.882;2023-11-18T01:17:04;21.07;;;10.90;;
81821;SDS011;72257;52.384;4.882;2023-11-18T01:19:30;22.52;;;10.60;;
81821;SDS011;72257;52.384;4.882;2023-11-18T01:21:55;22.27;;;10.90;;
81821;SDS011;72257;52.384;4.882;2023-11-18T01:24:20;22.13;;;11.87;;
81821;SDS011;72257;52.384;4.882;2023-11-18T01:26:46;20.98;;;11.82;;
81821;SDS011;72257;52.384;4.882;2023-11-18T01:29:11;19.70;;;10.60;;
81821;SDS011;72257;52.384;4.882;2023-11-18T01:31:38;19.30;;;10.60;;
81821;SDS011;72257;52.384;4.882;2023-11-18T01:34:06;24.02;;;11.60;;
81821;SDS011;72257;52.384;4.882;2023-11-18T01:36:32;20.80;;;10.82;;
81821;SDS011;72257;52.384;4.882;2023-11-18T01:38:57;21.73;;;11.27;;
81821;SDS011;72257;52.384;4.882;2023-11-18T01:41:22;26.10;;;12.47;;
81821;SDS011;72257;52.384;4.882;2023-11-18T01:43:48;24.07;;;12.07;;
81821;SDS011;72257;52.384;4.882;2023-11-18T01:46:13;19.43;;;11.13;;
81821;SDS011;72257;52.384;4.882;2023-11-18T01:48:38;18.20;;;9.37;;
81821;SDS011;72257;52.384;4.882;2023-11-18T01:51:04;19.05;;;10.88;;
81821;SDS011;72257;52.384;4.882;2023-11-18T01:53:30;22.90;;;11.88;;
81821;SDS011;72257;52.384;4.882;2023-11-18T01:55:55;22.95;;;11.88;;
81821;SDS011;72257;52.384;4.882;2023-11-18T01:58:21;21.10;;;11.63;;
81821;SDS011;72257;52.384;4.882;2023-11-18T02:00:48;22.13;;;12.02;;
81821;SDS011;72257;52.384;4.882;2023-11-18T02:03:13;27.77;;;12.85;;
81821;SDS011;72257;52.384;4.882;2023-11-18T02:05:38;20.92;;;11.07;;
81821;SDS011;72257;52.384;4.882;2023-11-18T02:08:04;20.60;;;11.07;;
81821;SDS011;72257;52.384;4.882;2023-11-18T02:10:30;24.95;;;12.60;;
81821;SDS011;72257;52.384;4.882;2023-11-18T02:15:27;19.85;;;11.45;;
81821;SDS011;72257;52.384;4.882;2023-11-18T02:17:54;21.23;;;11.55;;
81821;SDS011;72257;52.384;4.882;2023-11-18T02:20:22;20.20;;;10.65;;
81821;SDS011;72257;52.384;4.882;2023-11-18T02:22:48;21.35;;;12.07;;
81821;SDS011;72257;52.384;4.882;2023-11-18T02:25:17;20.57;;;11.63;;
81821;SDS011;72257;52.384;4.882;2023-11-18T02:27:43;19.55;;;10.52;;
81821;SDS011;72257;52.384;4.882;2023-11-18T02:30:08;17.73;;;9.88;;
81821;SDS011;72257;52.384;4.882;2023-11-18T02:32:39;20.10;;;10.35;;
81821;SDS011;72257;52.384;4.882;2023-11-18T02:35:10;16.92;;;11.07;;
81821;SDS011;72257;52.384;4.882;2023-11-18T02:40:04;17.65;;;9.63;;
81821;SDS011;72257;52.384;4.882;2023-11-18T02:42:39;20.95;;;10.23;;
81821;SDS011;72257;52.384;4.882;2023-11-18T02:45:06;19.00;;;10.70;;
81821;SDS011;72257;52.384;4.882;2023-11-18T02:47:32;19.63;;;10.05;;
81821;SDS011;72257;52.384;4.882;2023-11-18T02:49:57;19.10;;;11.30;;
81821;SDS011;72257;52.384;4.882;2023-11-18T02:52:30;18.45;;;10.57;;
81821;SDS011;72257;52.384;4.882;2023-11-18T02:54:55;19.07;;;11.13;;
81821;SDS011;72257;52.384;4.882;2023-11-18T02:57:20;16.13;;;9.83;;
81821;SDS011;72257;52.384;4.882;2023-11-18T02:59:45;17.97;;;11.03;;
81821;SDS011;72257;52.384;4.882;2023-11-18T03:02:12;19.95;;;11.00;;
81821;SDS011;72257;52.384;4.882;2023-11-18T03:04:37;20.27;;;10.40;;
81821;SDS011;72257;52.384;4.882;2023-11-18T03:07:02;19.00;;;11.37;;
81821;SDS011;72257;52.384;4.882;2023-11-18T03:09:27;18.93;;;9.90;;
81821;SDS011;72257;52.384;4.882;2023-11-18T03:11:52;20.37;;;10.73;;
81821;SDS011;72257;52.384;4.882;2023-11-18T03:14:18;18.83;;;10.60;;
81821;SDS011;72257;52.384;4.882;2023-11-18T03:16:44;19.33;;;10.10;;
81821;SDS011;72257;52.384;4.882;2023-11-18T03:19:09;17.23;;;9.80;;
81821;SDS011;72257;52.384;4.882;2023-11-18T03:21:34;18.17;;;10.53;;
81821;SDS011;72257;52.384;4.882;2023-11-18T03:24:00;23.45;;;9.95;;
81821;SDS011;72257;52.384;4.882;2023-11-18T03:26:25;18.70;;;10.20;;
81821;SDS011;72257;52.384;4.882;2023-11-18T03:28:51;19.95;;;10.88;;
81821;SDS011;72257;52.384;4.882;2023-11-18T03:31:16;17.53;;;10.17;;
81821;SDS011;72257;52.384;4.882;2023-11-18T03:33:41;17.98;;;10.35;;
81821;SDS011;72257;52.384;4.882;2023-11-18T03:36:07;19.50;;;10.57;;
81821;SDS011;72257;52.384;4.882;2023-11-18T03:38:33;19.35;;;9.95;;
81821;SDS011;72257;52.384;4.882;2023-11-18T03:40:59;17.38;;;8.80;;
81821;SDS011;72257;52.384;4.882;2023-11-18T03:43:25;17.70;;;9.97;;
81821;SDS011;72257;52.384;4.882;2023-11-18T03:45:50;17.60;;;10.10;;
81821;SDS011;72257;52.384;4.882;2023-11-18T03:48:17;16.50;;;9.85;;
81821;SDS011;72257;52.384;4.882;2023-11-18T03:50:43;21.63;;;10.38;;
81821;SDS011;72257;52.384;4.882;2023-11-18T03:53:09;17.85;;;8.85;;
81821;SDS011;72257;52.384;4.882;2023-11-18T03:55:35;15.85;;;9.75;;
81821;SDS011;72257;52.384;4.882;2023-11-18T03:58:00;20.23;;;10.47;;
81821;SDS011;72257;52.384;4.882;2023-11-18T04:00:26;16.83;;;9.20;;
81821;SDS011;72257;52.384;4.882;2023-11-18T04:02:54;16.88;;;8.68;;
81821;SDS011;72257;52.384;4.882;2023-11-18T04:05:20;17.23;;;10.13;;
81821;SDS011;72257;52.384;4.882;2023-11-18T04:07:45;18.07;;;9.87;;
81821;SDS011;72257;52.384;4.882;2023-11-18T04:10:10;17.45;;;10.60;;
81821;SDS011;72257;52.384;4.882;2023-11-18T04:12:36;16.80;;;10.10;;
81821;SDS011;72257;52.384;4.882;2023-11-18T04:15:02;19.92;;;10.40;;
81821;SDS011;72257;52.384;4.882;2023-11-18T04:17:29;17.00;;;9.23;;
81821;SDS011;72257;52.384;4.882;2023-11-18T04:19:54;19.23;;;8.87;;
81821;SDS011;72257;52.384;4.882;2023-11-18T04:22:20;15.65;;;9.43;;
81821;SDS011;72257;52.384;4.882;2023-11-18T04:24:46;17.75;;;9.68;;
81821;SDS011;72257;52.384;4.882;2023-11-18T04:27:12;17.30;;;9.23;;
81821;SDS011;72257;52.384;4.882;2023-11-18T04:29:37;16.83;;;10.07;;
81821;SDS011;72257;52.384;4.882;2023-11-18T04:32:03;17.77;;;10.18;;
81821;SDS011;72257;52.384;4.882;2023-11-18T04:34:28;18.10;;;9.80;;
81821;SDS011;72257;52.384;4.882;2023-11-18T04:36:53;13.73;;;9.03;;
81821;SDS011;72257;52.384;4.882;2023-11-18T04:39:18;16.77;;;9.80;;
81821;SDS011;72257;52.384;4.882;2023-11-18T04:41:45;20.70;;;10.43;;
81821;SDS011;72257;52.384;4.882;2023-11-18T04:44:11;16.27;;;9.00;;
81821;SDS011;72257;52.384;4.882;2023-11-18T04:46:36;19.13;;;8.60;;
81821;SDS011;72257;52.384;4.882;2023-11-18T04:49:02;14.93;;;9.27;;
81821;SDS011;72257;52.384;4.882;2023-11-18T04:51:27;17.90;;;9.13;;
81821;SDS011;72257;52.384;4.882;2023-11-18T04:53:52;15.43;;;9.77;;
81821;SDS011;72257;52.384;4.882;2023-11-18T04:56:17;16.13;;;10.10;;
81821;SDS011;72257;52.384;4.882;2023-11-18T04:58:43;15.52;;;9.10;;
81821;SDS011;72257;52.384;4.882;2023-11-18T05:01:11;14.90;;;9.32;;
81821;SDS011;72257;52.384;4.882;2023-11-18T05:03:37;14.30;;;9.30;;
81821;SDS011;72257;52.384;4.882;2023-11-18T05:06:03;16.20;;;8.50;;
81821;SDS011;72257;52.384;4.882;2023-11-18T05:08:29;13.82;;;8.32;;
81821;SDS011;72257;52.384;4.882;2023-11-18T05:10:54;15.90;;;8.60;;
81821;SDS011;72257;52.384;4.882;2023-11-18T05:13:19;18.73;;;10.13;;
81821;SDS011;72257;52.384;4.882;2023-11-18T05:15:45;15.27;;;8.50;;
81821;SDS011;72257;52.384;4.882;2023-11-18T05:18:11;16.73;;;9.23;;
81821;SDS011;72257;52.384;4.882;2023-11-18T05:20:39;16.38;;;8.45;;
81821;SDS011;72257;52.384;4.882;2023-11-18T05:23:04;15.57;;;9.40;;
81821;SDS011;72257;52.384;4.882;2023-11-18T05:25:29;18.67;;;9.70;;
81821;SDS011;72257;52.384;4.882;2023-11-18T05:27:54;17.48;;;9.25;;
81821;SDS011;72257;52.384;4.882;2023-11-18T05:30:20;17.17;;;8.50;;
81821;SDS011;72257;52.384;4.882;2023-11-18T05:32:45;18.03;;;9.37;;
81821;SDS011;72257;52.384;4.882;2023-11-18T05:35:10;17.20;;;9.07;;
81821;SDS011;72257;52.384;4.882;2023-11-18T05:37:36;14.52;;;8.73;;
81821;SDS011;72257;52.384;4.882;2023-11-18T05:40:03;17.45;;;9.75;;
81821;SDS011;72257;52.384;4.882;2023-11-18T05:42:35;16.27;;;8.88;;
81821;SDS011;72257;52.384;4.882;2023-11-18T05:45:03;19.90;;;10.23;;
81821;SDS011;72257;52.384;4.882;2023-11-18T05:47:29;18.50;;;9.50;;
81821;SDS011;72257;52.384;4.882;2023-11-18T05:49:54;19.30;;;10.05;;
81821;SDS011;72257;52.384;4.882;2023-11-18T05:52:20;24.03;;;9.77;;
81821;SDS011;72257;52.384;4.882;2023-11-18T05:54:45;13.75;;;8.50;;
81821;SDS011;72257;52.384;4.882;2023-11-18T05:57:12;15.52;;;8.63;;
81821;SDS011;72257;52.384;4.882;2023-11-18T05:59:37;17.73;;;9.03;;
81821;SDS011;72257;52.384;4.882;2023-11-18T06:02:03;16.27;;;10.48;;
81821;SDS011;72257;52.384;4.882;2023-11-18T06:04:28;19.33;;;8.85;;
81821;SDS011;72257;52.384;4.882;2023-11-18T06:06:53;17.77;;;9.80;;
81821;SDS011;72257;52.384;4.882;2023-11-18T06:09:18;17.23;;;9.37;;
81821;SDS011;72257;52.384;4.882;2023-11-18T06:11:46;19.67;;;9.35;;
81821;SDS011;72257;52.384;4.882;2023-11-18T06:14:11;16.92;;;9.50;;
81821;SDS011;72257;52.384;4.882;2023-11-18T06:16:37;14.80;;;8.32;;
81821;SDS011;72257;52.384;4.882;2023-11-18T06:19:05;16.83;;;9.00;;
81821;SDS011;72257;52.384;4.882;2023-11-18T06:21:31;31.88;;;9.15;;
81821;SDS011;72257;52.384;4.882;2023-11-18T06:23:57;17.77;;;8.27;;
81821;SDS011;72257;52.384;4.882;2023-11-18T06:26:22;16.02;;;8.48;;
81821;SDS011;72257;52.384;4.882;2023-11-18T06:28:49;16.02;;;8.85;;
81821;SDS011;72257;52.384;4.882;2023-11-18T06:31:14;19.63;;;8.80;;
81821;SDS011;72257;52.384;4.882;2023-11-18T06:33:43;17.37;;;8.80;;
81821;SDS011;72257;52.384;4.882;2023-11-18T06:36:09;15.52;;;7.97;;
81821;SDS011;72257;52.384;4.882;2023-11-18T06:38:36;17.55;;;8.07;;
81821;SDS011;72257;52.384;4.882;2023-11-18T06:41:01;13.52;;;7.78;;
81821;SDS011;72257;52.384;4.882;2023-11-18T06:43:28;16.17;;;7.95;;
81821;SDS011;72257;52.384;4.882;2023-11-18T06:46:01;16.40;;;8.50;;
81821;SDS011;72257;52.384;4.882;2023-11-18T06:48:26;15.32;;;7.70;;
81821;SDS011;72257;52.384;4.882;2023-11-18T06:50:51;19.47;;;7.50;;
81821;SDS011;72257;52.384;4.882;2023-11-18T06:53:16;18.20;;;7.50;;
81821;SDS011;72257;52.384;4.882;2023-11-18T06:55:41;17.03;;;7.47;;
81821;SDS011;72257;52.384;4.882;2023-11-18T06:58:07;15.70;;;7.18;;
81821;SDS011;72257;52.384;4.882;2023-11-18T07:00:32;14.50;;;7.97;;
81821;SDS011;72257;52.384;4.882;2023-11-18T07:02:57;12.70;;;5.77;;
81821;SDS011;72257;52.384;4.882;2023-11-18T07:05:22;13.17;;;6.00;;
81821;SDS011;72257;52.384;4.882;2023-11-18T07:07:49;15.48;;;6.97;;
81821;SDS011;72257;52.384;4.882;2023-11-18T07:10:14;14.38;;;6.10;;
81821;SDS011;72257;52.384;4.882;2023-11-18T07:12:39;18.17;;;6.30;;
81821;SDS011;72257;52.384;4.882;2023-11-18T07:15:05;14.33;;;6.17;;
81821;SDS011;72257;52.384;4.882;2023-11-18T07:17:30;14.10;;;6.43;;
81821;SDS011;72257;52.384;4.882;2023-11-18T07:19:55;16.20;;;6.27;;
81821;SDS011;72257;52.384;4.882;2023-11-18T07:22:20;13.13;;;7.57;;
81821;SDS011;72257;52.384;4.882;2023-11-18T07:24:46;13.50;;;6.97;;
81821;SDS011;72257;52.384;4.882;2023-11-18T07:27:11;16.97;;;8.13;;
81821;SDS011;72257;52.384;4.882;2023-11-18T07:29:36;16.33;;;8.07;;
81821;SDS011;72257;52.384;4.882;2023-11-18T07:32:01;15.87;;;8.37;;
81821;SDS011;72257;52.384;4.882;2023-11-18T07:36:57;17.27;;;8.27;;
81821;SDS011;72257;52.384;4.882;2023-11-18T07:39:22;17.10;;;8.17;;
81821;SDS011;72257;52.384;4.882;2023-11-18T07:41:55;17.55;;;8.32;;
81821;SDS011;72257;52.384;4.882;2023-11-18T07:44:20;17.40;;;7.93;;
81821;SDS011;72257;52.384;4.882;2023-11-18T07:46:46;16.83;;;8.35;;
81821;SDS011;72257;52.384;4.882;2023-11-18T07:49:12;21.50;;;8.53;;
81821;SDS011;72257;52.384;4.882;2023-11-18T07:51:37;24.60;;;10.00;;
81821;SDS011;72257;52.384;4.882;2023-11-18T07:54:02;19.43;;;8.50;;
81821;SDS011;72257;52.384;4.882;2023-11-18T07:56:28;19.02;;;8.93;;
81821;SDS011;72257;52.384;4.882;2023-11-18T07:58:53;23.97;;;9.37;;
81821;SDS011;72257;52.384;4.882;2023-11-18T08:01:19;19.15;;;10.10;;
81821;SDS011;72257;52.384;4.882;2023-11-18T08:03:46;20.98;;;9.70;;
81821;SDS011;72257;52.384;4.882;2023-11-18T08:06:12;20.08;;;9.85;;
81821;SDS011;72257;52.384;4.882;2023-11-18T08:08:38;16.58;;;8.77;;
81821;SDS011;72257;52.384;4.882;2023-11-18T08:11:06;23.17;;;9.57;;
81821;SDS011;72257;52.384;4.882;2023-11-18T08:15:57;17.07;;;8.57;;
81821;SDS011;72257;52.384;4.882;2023-11-18T08:18:26;23.52;;;10.07;;
81821;SDS011;72257;52.384;4.882;2023-11-18T08:20:52;16.70;;;8.57;;
81821;SDS011;72257;52.384;4.882;2023-11-18T08:23:18;19.93;;;9.87;;
81821;SDS011;72257;52.384;4.882;2023-11-18T08:25:44;18.45;;;8.45;;
81821;SDS011;72257;52.384;4.882;2023-11-18T08:28:11;19.85;;;8.50;;
81821;SDS011;72257;52.384;4.882;2023-11-18T08:30:39;18.40;;;9.10;;
81821;SDS011;72257;52.384;4.882;2023-11-18T08:33:05;19.08;;;9.40;;
81821;SDS011;72257;52.384;4.882;2023-11-18T08:35:34;17.30;;;8.88;;
81821;SDS011;72257;52.384;4.882;2023-11-18T08:37:59;18.08;;;8.52;;
81821;SDS011;72257;52.384;4.882;2023-11-18T08:40:26;16.25;;;8.30;;
81821;SDS011;72257;52.384;4.882;2023-11-18T08:42:52;16.33;;;8.53;;
81821;SDS011;72257;52.384;4.882;2023-11-18T08:45:22;16.08;;;8.10;;
81821;SDS011;72257;52.384;4.882;2023-11-18T08:47:47;13.90;;;8.93;;
81821;SDS011;72257;52.384;4.882;2023-11-18T08:50:16;16.05;;;8.65;;
81821;SDS011;72257;52.384;4.882;2023-11-18T08:55:09;18.08;;;8.05;;
81821;SDS011;72257;52.384;4.882;2023-11-18T09:00:23;11.13;;;6.22;;
81821;SDS011;72257;52.384;4.882;2023-11-18T09:03:26;16.65;;;7.53;;
81821;SDS011;72257;52.384;4.882;2023-11-18T09:06:01;12.57;;;7.25;;
81821;SDS011;72257;52.384;4.882;2023-11-18T09:08:31;16.17;;;7.47;;
81821;SDS011;72257;52.384;4.882;2023-11-18T09:11:06;14.00;;;7.25;;
81821;SDS011;72257;52.384;4.882;2023-11-18T09:13:32;12.60;;;7.15;;
81821;SDS011;72257;52.384;4.882;2023-11-18T09:15:59;12.25;;;6.38;;
81821;SDS011;72257;52.384;4.882;2023-11-18T09:18:28;16.38;;;7.00;;
81821;SDS011;72257;52.384;4.882;2023-11-18T09:20:55;14.32;;;6.85;;
81821;SDS011;72257;52.384;4.882;2023-11-18T09:23:21;11.27;;;6.18;;
81821;SDS011;72257;52.384;4.882;2023-11-18T09:25:46;14.68;;;6.50;;
81821;SDS011;72257;52.384;4.882;2023-11-18T09:28:12;17.13;;;7.35;;
81821;SDS011;72257;52.384;4.882;2023-11-18T09:30:39;18.13;;;7.47;;
81821;SDS011;72257;52.384;4.882;2023-11-18T09:33:14;11.70;;;6.53;;
81821;SDS011;72257;52.384;4.882;2023-11-18T09:35:46;13.23;;;6.05;;
81821;SDS011;72257;52.384;4.882;2023-11-18T09:38:11;12.37;;;6.27;;
81821;SDS011;72257;52.384;4.882;2023-11-18T09:40:37;12.02;;;6.50;;
81821;SDS011;72257;52.384;4.882;2023-11-18T09:43:05;15.00;;;6.93;;
81821;SDS011;72257;52.384;4.882;2023-11-18T09:45:34;8.05;;;5.38;;
81821;SDS011;72257;52.384;4.882;2023-11-18T09:47:59;14.87;;;6.17;;
81821;SDS011;72257;52.384;4.882;2023-11-18T09:50:26;12.00;;;5.90;;
81821;SDS011;72257;52.384;4.882;2023-11-18T09:52:54;11.70;;;5.82;;
81821;SDS011;72257;52.384;4.882;2023-11-18T09:55:23;15.27;;;7.10;;
81821;SDS011;72257;52.384;4.882;2023-11-18T09:57:52;13.63;;;6.82;;
81821;SDS011;72257;52.384;4.882;2023-11-18T10:00:22;12.30;;;5.65;;
81821;SDS011;72257;52.384;4.882;2023-11-18T10:02:58;12.60;;;6.00;;
81821;SDS011;72257;52.384;4.882;2023-11-18T10:05:25;12.10;;;5.00;;
81821;SDS011;72257;52.384;4.882;2023-11-18T10:07:51;14.07;;;5.82;;
81821;SDS011;72257;52.384;4.882;2023-11-18T10:10:16;9.10;;;4.97;;
81821;SDS011;72257;52.384;4.882;2023-11-18T10:12:42;12.57;;;5.77;;
81821;SDS011;72257;52.384;4.882;2023-11-18T10:15:10;11.32;;;5.45;;
81821;SDS011;72257;52.384;4.882;2023-11-18T10:17:38;10.93;;;6.10;;
81821;SDS011;72257;52.384;4.882;2023-11-18T10:20:20;15.20;;;5.72;;
81821;SDS011;72257;52.384;4.882;2023-11-18T10:22:50;15.90;;;6.07;;
81821;SDS011;72257;52.384;4.882;2023-11-18T10:25:30;13.00;;;4.88;;
81821;SDS011;72257;52.384;4.882;2023-11-18T10:27:56;16.42;;;5.95;;
81821;SDS011;72257;52.384;4.882;2023-11-18T10:30:22;12.82;;;5.20;;
81821;SDS011;72257;52.384;4.882;2023-11-18T10:32:58;10.20;;;5.03;;
81821;SDS011;72257;52.384;4.882;2023-11-18T10:35:34;12.13;;;4.97;;
81821;SDS011;72257;52.384;4.882;2023-11-18T10:38:02;11.95;;;5.03;;
81821;SDS011;72257;52.384;4.882;2023-11-18T10:40:31;12.98;;;5.53;;
81821;SDS011;72257;52.384;4.882;2023-11-18T10:42:57;10.30;;;4.80;;
81821;SDS011;72257;52.384;4.882;2023-11-18T10:45:23;11.07;;;5.47;;
81821;SDS011;72257;52.384;4.882;2023-11-18T10:47:50;9.38;;;4.70;;
81821;SDS011;72257;52.384;4.882;2023-11-18T10:50:15;8.32;;;4.03;;
81821;SDS011;72257;52.384;4.882;2023-11-18T10:52:44;9.73;;;5.53;;
81821;SDS011;72257;52.384;4.882;2023-11-18T10:55:11;12.00;;;4.85;;
81821;SDS011;72257;52.384;4.882;2023-11-18T10:57:36;10.85;;;4.47;;
81821;SDS011;72257;52.384;4.882;2023-11-18T11:00:04;9.20;;;5.30;;
81821;SDS011;72257;52.384;4.882;2023-11-18T11:02:38;8.15;;;4.53;;
81821;SDS011;72257;52.384;4.882;2023-11-18T11:05:06;9.43;;;4.95;;
81821;SDS011;72257;52.384;4.882;2023-11-18T11:07:32;11.07;;;4.63;;
81821;SDS011;72257;52.384;4.882;2023-11-18T11:09:57;7.28;;;4.38;;
81821;SDS011;72257;52.384;4.882;2023-11-18T11:12:23;9.43;;;4.50;;
81821;SDS011;72257;52.384;4.882;2023-11-18T11:14:57;10.10;;;4.60;;
81821;SDS011;72257;52.384;4.882;2023-11-18T11:17:24;10.27;;;4.07;;
81821;SDS011;72257;52.384;4.882;2023-11-18T11:22:42;8.85;;;3.60;;
81821;SDS011;72257;52.384;4.882;2023-11-18T11:25:18;6.80;;;3.58;;
81821;SDS011;72257;52.384;4.882;2023-11-18T11:32:52;7.30;;;3.90;;
81821;SDS011;72257;52.384;4.882;2023-11-18T11:35:19;7.25;;;3.00;;
81821;SDS011;72257;52.384;4.882;2023-11-18T11:37:46;6.00;;;3.20;;
81821;SDS011;72257;52.384;4.882;2023-11-18T11:40:13;5.32;;;2.85;;
81821;SDS011;72257;52.384;4.882;2023-11-18T11:42:46;4.50;;;2.75;;
81821;SDS011;72257;52.384;4.882;2023-11-18T11:45:12;8.30;;;3.25;;
81821;SDS011;72257;52.384;4.882;2023-11-18T11:47:46;5.97;;;3.80;;
81821;SDS011;72257;52.384;4.882;2023-11-18T11:50:19;8.77;;;4.43;;
81821;SDS011;72257;52.384;4.882;2023-11-18T11:52:56;5.82;;;3.33;;
81821;SDS011;72257;52.384;4.882;2023-11-18T11:55:29;7.60;;;3.42;;
81821;SDS011;72257;52.384;4.882;2023-11-18T11:57:58;5.20;;;3.03;;
81821;SDS011;72257;52.384;4.882;2023-11-18T12:00:23;5.33;;;2.87;;
81821;SDS011;72257;52.384;4.882;2023-11-18T12:02:51;5.15;;;3.20;;
81821;SDS011;72257;52.384;4.882;2023-11-18T12:05:20;6.25;;;2.55;;
81821;SDS011;72257;52.384;4.882;2023-11-18T12:07:50;6.53;;;3.25;;
81821;SDS011;72257;52.384;4.882;2023-11-18T12:10:15;6.00;;;2.53;;
81821;SDS011;72257;52.384;4.882;2023-11-18T12:12:46;8.27;;;3.45;;
81821;SDS011;72257;52.384;4.882;2023-11-18T12:15:11;6.93;;;3.17;;
81821;SDS011;72257;52.384;4.882;2023-11-18T12:23:05;8.38;;;3.85;;
81821;SDS011;72257;52.384;4.882;2023-11-18T12:25:39;8.25;;;3.17;;
81821;SDS011;72257;52.384;4.882;2023-11-18T12:28:11;7.37;;;3.30;;
81821;SDS011;72257;52.384;4.882;2023-11-18T12:30:40;6.40;;;3.30;;
81821;SDS011;72257;52.384;4.882;2023-11-18T12:33:08;6.03;;;3.20;;
81821;SDS011;72257;52.384;4.882;2023-11-18T12:40:59;5.45;;;3.25;;
81821;SDS011;72257;52.384;4.882;2023-11-18T12:48:26;5.50;;;2.95;;
81821;SDS011;72257;52.384;4.882;2023-11-18T12:50:53;6.38;;;3.17;;
81821;SDS011;72257;52.384;4.882;2023-11-18T12:53:20;5.03;;;2.80;;
81821;SDS011;72257;52.384;4.882;2023-11-18T12:55:49;6.25;;;3.55;;
81821;SDS011;72257;52.384;4.882;2023-11-18T12:58:14;5.43;;;3.20;;
81821;SDS011;72257;52.384;4.882;2023-11-18T13:00:40;5.00;;;2.70;;
81821;SDS011;72257;52.384;4.882;2023-11-18T13:03:07;5.13;;;2.70;;
81821;SDS011;72257;52.384;4.882;2023-11-18T13:05:35;5.90;;;2.70;;
81821;SDS011;72257;52.384;4.882;2023-11-18T13:08:02;5.38;;;2.72;;
81821;SDS011;72257;52.384;4.882;2023-11-18T13:10:27;7.78;;;2.80;;
81821;SDS011;72257;52.384;4.882;2023-11-18T13:12:53;8.40;;;2.53;;
81821;SDS011;72257;52.384;4.882;2023-11-18T13:15:19;4.10;;;2.38;;
81821;SDS011;72257;52.384;4.882;2023-11-18T13:17:58;4.72;;;2.58;;
81821;SDS011;72257;52.384;4.882;2023-11-18T13:20:23;4.57;;;2.78;;
81821;SDS011;72257;52.384;4.882;2023-11-18T13:22:50;5.28;;;2.67;;
81821;SDS011;72257;52.384;4.882;2023-11-18T13:25:15;6.73;;;2.73;;
81821;SDS011;72257;52.384;4.882;2023-11-18T13:27:42;4.18;;;2.40;;
81821;SDS011;72257;52.384;4.882;2023-11-18T13:30:07;4.87;;;2.83;;
81821;SDS011;72257;52.384;4.882;2023-11-18T13:32:39;4.05;;;2.47;;
81821;SDS011;72257;52.384;4.882;2023-11-18T13:35:05;5.63;;;3.08;;
81821;SDS011;72257;52.384;4.882;2023-11-18T13:37:32;4.13;;;2.60;;
81821;SDS011;72257;52.384;4.882;2023-11-18T13:39:57;3.90;;;2.43;;
81821;SDS011;72257;52.384;4.882;2023-11-18T13:44:58;4.28;;;2.08;;
81821;SDS011;72257;52.384;4.882;2023-11-18T13:47:25;4.75;;;2.10;;
81821;SDS011;72257;52.384;4.882;2023-11-18T13:49:53;2.88;;;1.88;;
81821;SDS011;72257;52.384;4.882;2023-11-18T13:52:19;4.15;;;2.65;;
81821;SDS011;72257;52.384;4.882;2023-11-18T13:54:46;5.28;;;2.17;;
81821;SDS011;72257;52.384;4.882;2023-11-18T13:57:11;4.75;;;2.63;;
81821;SDS011;72257;52.384;4.882;2023-11-18T13:59:37;3.57;;;2.03;;
81821;SDS011;72257;52.384;4.882;2023-11-18T14:02:02;4.22;;;2.50;;
81821;SDS011;72257;52.384;4.882;2023-11-18T14:04:29;4.13;;;2.00;;
81821;SDS011;72257;52.384;4.882;2023-11-18T14:07:02;4.60;;;1.90;;
81821;SDS011;72257;52.384;4.882;2023-11-18T14:09:30;3.42;;;1.90;;
81821;SDS011;72257;52.384;4.882;2023-11-18T14:11:56;4.60;;;2.17;;
81821;SDS011;72257;52.384;4.882;2023-11-18T14:14:22;2.63;;;1.70;;
81821;SDS011;72257;52.384;4.882;2023-11-18T14:16:48;4.63;;;2.10;;
81821;SDS011;72257;52.384;4.882;2023-11-18T14:19:13;4.67;;;2.43;;
81821;SDS011;72257;52.384;4.882;2023-11-18T14:21:39;4.57;;;1.90;;
81821;SDS011;72257;52.384;4.882;2023-11-18T14:24:05;2.60;;;1.80;;
81821;SDS011;72257;52.384;4.882;2023-11-18T14:26:32;2.83;;;1.95;;
81821;SDS011;72257;52.384;4.882;2023-11-18T14:28:58;3.60;;;2.33;;
81821;SDS011;72257;52.384;4.882;2023-11-18T14:31:24;2.75;;;1.67;;
81821;SDS011;72257;52.384;4.882;2023-11-18T14:33:50;3.00;;;2.28;;
81821;SDS011;72257;52.384;4.882;2023-11-18T14:36:15;3.37;;;1.90;;
81821;SDS011;72257;52.384;4.882;2023-11-18T14:38:40;2.05;;;1.58;;
81821;SDS011;72257;52.384;4.882;2023-11-18T14:41:05;4.20;;;2.20;;
81821;SDS011;72257;52.384;4.882;2023-11-18T14:43:32;3.58;;;2.80;;
81821;SDS011;72257;52.384;4.882;2023-11-18T14:45:58;3.80;;;2.10;;
81821;SDS011;72257;52.384;4.882;2023-11-18T14:48:23;3.47;;;1.90;;
81821;SDS011;72257;52.384;4.882;2023-11-18T14:50:49;2.97;;;2.30;;
81821;SDS011;72257;52.384;4.882;2023-11-18T14:53:14;4.00;;;2.13;;
81821;SDS011;72257;52.384;4.882;2023-11-18T14:55:39;4.60;;;2.70;;
81821;SDS011;72257;52.384;4.882;2023-11-18T14:58:04;3.37;;;2.20;;
81821;SDS011;72257;52.384;4.882;2023-11-18T15:00:32;3.78;;;2.03;;
81821;SDS011;72257;52.384;4.882;2023-11-18T15:02:57;3.35;;;2.35;;
81821;SDS011;72257;52.384;4.882;2023-11-18T15:05:23;3.90;;;2.67;;
81821;SDS011;72257;52.384;4.882;2023-11-18T15:07:49;3.77;;;2.27;;
81821;SDS011;72257;52.384;4.882;2023-11-18T15:10:15;4.00;;;2.22;;
81821;SDS011;72257;52.384;4.882;2023-11-18T15:12:44;3.67;;;2.20;;
81821;SDS011;72257;52.384;4.882;2023-11-18T15:15:09;3.20;;;2.03;;